Time;durP1;ratioP1;P1;durP2;ratioP2;P2;SDS_P1;SDS_P2;PMS_P1;PMS_P2;Temp;Humidity;BMP_temperature;BMP_pressure;BME280_temperature;BME280_humidity;BME280_pressure;Samples;Min_cycle;Max_cycle;Signal;HPM_P1;HPM_P2
2023/04/20 00:01:38;;;;;;;6.03;3.17;;;;;;;4.48;100.00;101464.19;6074407;28;20035;-71
2023/04/20 00:04:35;;;;;;;10.17;3.73;;;;;;;4.50;100.00;101462.28;6073796;28;20037;-71
2023/04/20 00:07:30;;;;;;;8.60;2.80;;;;;;;4.71;100.00;101471.53;6088981;28;20057;-72
2023/04/20 00:10:26;;;;;;;6.85;3.30;;;;;;;4.68;100.00;101469.09;6074656;28;20090;-72
2023/04/20 00:13:21;;;;;;;6.53;2.50;;;;;;;4.52;100.00;101473.53;6073009;28;20025;-71
2023/04/20 00:16:17;;;;;;;7.37;3.43;;;;;;;4.48;100.00;101460.69;6076427;28;20029;-72
2023/04/20 00:19:12;;;;;;;9.32;3.13;;;;;;;4.46;100.00;101465.16;6074209;28;20021;-71
2023/04/20 00:22:07;;;;;;;7.57;3.00;;;;;;;4.45;100.00;101456.47;6073204;28;20033;-73
2023/04/20 00:25:03;;;;;;;8.97;3.17;;;;;;;4.35;100.00;101446.59;6073601;28;20442;-68
2023/04/20 00:27:59;;;;;;;8.68;4.35;;;;;;;4.47;100.00;101459.84;6074049;28;20159;-70
2023/04/20 00:30:54;;;;;;;8.02;3.35;;;;;;;4.54;100.00;101466.41;6074198;28;20109;-72
2023/04/20 00:33:49;;;;;;;8.35;3.40;;;;;;;4.55;100.00;101462.88;6072853;28;20037;-73
2023/04/20 00:36:45;;;;;;;11.83;4.80;;;;;;;4.49;100.00;101447.47;6074216;28;20532;-72
2023/04/20 00:39:40;;;;;;;14.13;5.60;;;;;;;4.57;100.00;101450.50;6073313;28;20030;-71
2023/04/20 00:42:36;;;;;;;10.17;3.47;;;;;;;4.47;100.00;101436.22;6073738;28;20048;-71
2023/04/20 00:45:31;;;;;;;13.82;3.92;;;;;;;4.70;100.00;101456.72;6072703;28;20037;-71
2023/04/20 00:48:26;;;;;;;11.70;4.00;;;;;;;4.56;100.00;101426.97;6085329;28;20043;-72
2023/04/20 00:51:22;;;;;;;8.63;3.83;;;;;;;4.70;100.00;101450.63;6073892;28;20033;-71
2023/04/20 00:54:17;;;;;;;8.45;3.85;;;;;;;4.53;100.00;101420.09;6071497;28;20061;-72
2023/04/20 00:57:13;;;;;;;9.07;3.60;;;;;;;4.69;100.00;101420.88;6073737;28;20025;-72
2023/04/20 01:00:09;;;;;;;12.70;3.67;;;;;;;4.73;100.00;101422.38;6072605;28;20069;-72
2023/04/20 01:03:06;;;;;;;10.88;3.90;;;;;;;4.70;100.00;101419.09;6073302;28;20060;-73
2023/04/20 01:06:01;;;;;;;9.95;3.20;;;;;;;4.57;100.00;101400.59;6072237;28;20033;-71
2023/04/20 01:08:57;;;;;;;10.82;3.28;;;;;;;4.73;100.00;101416.28;6074562;28;20079;-71
2023/04/20 01:11:52;;;;;;;11.13;3.73;;;;;;;4.71;100.00;101395.38;6091540;28;20020;-70
2023/04/20 01:14:47;;;;;;;12.20;3.33;;;;;;;4.76;100.00;101405.59;6080284;28;20474;-74
2023/04/20 01:17:43;;;;;;;10.43;3.60;;;;;;;4.81;100.00;101422.75;6074603;28;20040;-70
2023/04/20 01:20:38;;;;;;;12.23;3.83;;;;;;;4.89;100.00;101395.19;6073210;28;20044;-70
2023/04/20 01:23:34;;;;;;;7.80;3.45;;;;;;;4.83;100.00;101404.28;6072022;28;20397;-72
2023/04/20 01:26:29;;;;;;;8.07;2.75;;;;;;;4.90;100.00;101405.59;6067265;28;20030;-69
2023/04/20 01:29:24;;;;;;;8.17;3.43;;;;;;;4.78;100.00;101388.78;6072820;28;20046;-71
2023/04/20 01:32:20;;;;;;;12.63;3.67;;;;;;;4.81;100.00;101391.25;6072962;28;20030;-72
2023/04/20 01:35:15;;;;;;;8.50;4.00;;;;;;;4.85;100.00;101383.16;6072225;28;20284;-73
2023/04/20 01:38:17;;;;;;;9.43;3.13;;;;;;;4.77;100.00;101375.75;6072084;28;20103;-75
2023/04/20 01:41:12;;;;;;;10.38;3.33;;;;;;;4.67;100.00;101372.81;6073024;28;20037;-71
2023/04/20 01:44:07;;;;;;;10.10;3.97;;;;;;;4.81;100.00;101391.25;6071937;28;20040;-72
2023/04/20 01:47:03;;;;;;;7.57;3.73;;;;;;;4.89;100.00;101392.56;6082977;28;20021;-73
2023/04/20 01:49:58;;;;;;;10.67;3.93;;;;;;;4.76;100.00;101377.53;6080554;28;20079;-72
2023/04/20 01:52:53;;;;;;;16.03;4.43;;;;;;;4.74;100.00;101373.31;6077245;28;20276;-75
2023/04/20 01:55:49;;;;;;;10.70;4.20;;;;;;;4.66;100.00;101371.16;6076320;28;20059;-74
2023/04/20 01:58:44;;;;;;;9.88;4.07;;;;;;;4.70;100.00;101367.41;6077341;28;20029;-73
2023/04/20 02:01:39;;;;;;;13.40;4.30;;;;;;;4.72;100.00;101375.19;6077199;28;20079;-72
2023/04/20 02:04:35;;;;;;;9.40;3.50;;;;;;;4.79;100.00;101379.97;6076261;28;20099;-72
2023/04/20 02:07:30;;;;;;;8.95;4.13;;;;;;;4.66;100.00;101355.41;6077112;28;20164;-75
2023/04/20 02:10:26;;;;;;;10.03;4.13;;;;;;;4.77;100.00;101347.72;6077287;28;20111;-74
2023/04/20 02:13:21;;;;;;;10.23;3.70;;;;;;;4.79;100.00;101358.13;6075847;28;20049;-70
2023/04/20 02:16:17;;;;;;;10.13;4.17;;;;;;;4.76;100.00;101359.16;6081409;28;20375;-70
2023/04/20 02:19:13;;;;;;;11.38;4.03;;;;;;;4.71;100.00;101349.84;6076795;28;20394;-71
2023/04/20 02:22:08;;;;;;;11.60;4.03;;;;;;;4.76;100.00;101346.00;6076804;28;20116;-71
2023/04/20 02:25:04;;;;;;;16.53;4.80;;;;;;;4.84;100.00;101352.59;6075759;28;20083;-74
2023/04/20 02:28:00;;;;;;;14.85;5.97;;;;;;;4.77;100.00;101334.59;6077188;28;20109;-72
2023/04/20 02:30:55;;;;;;;11.33;4.17;;;;;;;4.84;100.00;101355.22;6077022;28;20037;-72
2023/04/20 02:33:51;;;;;;;13.03;5.37;;;;;;;4.70;100.00;101335.88;6075325;28;20048;-73
2023/04/20 02:36:47;;;;;;;11.00;4.35;;;;;;;4.71;100.00;101342.81;6076506;28;20276;-73
2023/04/20 02:39:42;;;;;;;10.63;3.53;;;;;;;4.79;100.00;101345.84;6076344;28;20139;-70
2023/04/20 02:42:38;;;;;;;14.57;4.70;;;;;;;4.80;100.00;101359.81;6076572;28;20044;-70
2023/04/20 02:45:34;;;;;;;11.10;3.88;;;;;;;4.85;100.00;101349.03;6057629;28;20037;-72
2023/04/20 02:48:29;;;;;;;11.30;4.70;;;;;;;4.85;100.00;101349.88;6081118;28;20406;-71
2023/04/20 02:51:24;;;;;;;9.52;4.07;;;;;;;4.81;100.00;101351.81;6058511;28;20453;-70
2023/04/20 02:54:20;;;;;;;14.43;4.50;;;;;;;4.75;100.00;101360.09;6082841;28;20059;-71
2023/04/20 02:57:15;;;;;;;19.08;5.00;;;;;;;4.71;100.00;101342.81;6074732;28;20065;-69
2023/04/20 03:00:12;;;;;;;12.97;5.20;;;;;;;4.70;100.00;101340.31;6076104;28;20405;-70
2023/04/20 03:03:08;;;;;;;9.60;4.70;;;;;;;4.81;100.00;101357.09;6075209;28;20029;-73
2023/04/20 03:06:04;;;;;;;9.77;4.00;;;;;;;4.81;100.00;101354.47;6075559;28;20033;-72
2023/04/20 03:08:59;;;;;;;10.52;4.78;;;;;;;4.78;100.00;101344.13;6075971;28;20121;-73
2023/04/20 03:11:54;;;;;;;10.67;4.73;;;;;;;4.81;100.00;101349.19;6075891;28;20043;-73
2023/04/20 03:14:50;;;;;;;12.00;4.53;;;;;;;4.83;100.00;101351.75;6073867;28;20275;-72
2023/04/20 03:17:45;;;;;;;11.13;5.17;;;;;;;4.77;100.00;101341.63;6078846;28;20036;-72
2023/04/20 03:20:41;;;;;;;11.45;4.88;;;;;;;4.79;100.00;101342.34;6078625;28;20037;-71
2023/04/20 03:23:36;;;;;;;14.50;4.65;;;;;;;4.87;100.00;101334.84;6074219;28;20033;-73
2023/04/20 03:26:31;;;;;;;11.03;4.67;;;;;;;4.90;100.00;101349.56;6075356;28;20033;-72
2023/04/20 03:29:27;;;;;;;12.93;5.00;;;;;;;4.88;100.00;101330.44;6075233;28;20116;-73
2023/04/20 03:32:22;;;;;;;11.83;4.17;;;;;;;4.85;100.00;101349.03;6075590;28;20056;-72
2023/04/20 03:35:19;;;;;;;12.30;4.87;;;;;;;5.00;100.00;101356.78;6076580;28;20037;-72
2023/04/20 03:38:14;;;;;;;13.60;5.63;;;;;;;4.92;100.00;101351.16;6101344;28;20074;-72
2023/04/20 03:41:10;;;;;;;16.20;5.07;;;;;;;4.96;100.00;101362.34;6073879;28;20045;-73
2023/04/20 03:44:06;;;;;;;11.50;5.53;;;;;;;5.04;100.00;101354.84;6074460;28;20036;-72
2023/04/20 03:47:01;;;;;;;16.05;5.50;;;;;;;4.89;100.00;101361.03;6074648;28;20041;-71
2023/04/20 03:49:56;;;;;;;13.53;5.00;;;;;;;5.02;100.00;101356.72;6078308;28;20037;-73
2023/04/20 03:52:51;;;;;;;13.77;5.03;;;;;;;4.85;100.00;101354.28;6074485;28;20037;-73
2023/04/20 03:55:47;;;;;;;15.83;5.83;;;;;;;4.94;100.00;101364.22;6073218;28;20053;-72
2023/04/20 03:58:42;;;;;;;10.10;4.33;;;;;;;4.86;100.00;101350.72;6074349;28;20437;-73
2023/04/20 04:01:38;;;;;;;15.37;4.70;;;;;;;4.78;100.00;101331.00;6074337;28;20048;-72
2023/04/20 04:04:33;;;;;;;12.73;4.95;;;;;;;4.82;100.00;101343.03;6073698;28;20092;-73
2023/04/20 04:07:28;;;;;;;12.70;5.10;;;;;;;4.79;100.00;101348.47;6074365;28;20037;-72
2023/04/20 04:10:25;;;;;;;11.63;5.07;;;;;;;4.75;100.00;101339.09;6074061;28;20116;-73
2023/04/20 04:13:20;;;;;;;14.25;5.32;;;;;;;4.84;100.00;101357.84;6074000;28;20757;-74
2023/04/20 04:16:15;;;;;;;14.07;5.73;;;;;;;4.78;100.00;101333.63;6073722;28;20045;-73
2023/04/20 04:19:11;;;;;;;14.43;5.03;;;;;;;4.73;100.00;101343.56;6076918;28;20059;-73
2023/04/20 04:22:07;;;;;;;15.47;5.67;;;;;;;4.79;100.00;101356.34;6073821;28;20454;-74
2023/04/20 04:25:03;;;;;;;23.63;8.00;;;;;;;4.91;100.00;101356.53;6073378;28;20470;-72
2023/04/20 04:27:58;;;;;;;15.55;5.28;;;;;;;4.89;100.00;101350.53;6074124;28;20509;-71
2023/04/20 04:30:54;;;;;;;15.45;5.63;;;;;;;5.15;100.00;101355.00;6073337;28;20034;-70
2023/04/20 04:33:49;;;;;;;16.23;5.83;;;;;;;4.96;100.00;101344.81;6072825;28;20041;-73
2023/04/20 04:36:44;;;;;;;13.07;5.50;;;;;;;5.00;100.00;101348.09;6072465;28;20043;-71
2023/04/20 04:39:40;;;;;;;11.10;5.30;;;;;;;5.04;100.00;101344.31;6080654;28;20461;-72
2023/04/20 04:42:35;;;;;;;13.23;5.13;;;;;;;5.05;100.00;101340.75;6074077;28;20059;-73
2023/04/20 04:45:31;;;;;;;14.50;5.85;;;;;;;4.89;100.00;101332.13;6072278;28;20295;-71
2023/04/20 04:48:26;;;;;;;14.90;5.87;;;;;;;4.95;100.00;101337.84;6076347;28;20021;-73
2023/04/20 04:51:22;;;;;;;13.85;5.50;;;;;;;4.93;100.00;101338.88;6073201;28;20040;-72
2023/04/20 04:54:17;;;;;;;16.00;6.07;;;;;;;4.99;100.00;101363.00;6073018;28;20048;-71
2023/04/20 04:57:13;;;;;;;16.50;5.70;;;;;;;5.01;100.00;101347.13;6073248;28;20033;-72
2023/04/20 05:00:10;;;;;;;14.85;5.82;;;;;;;5.05;100.00;101364.41;6073276;28;20501;-72
2023/04/20 05:03:06;;;;;;;11.65;4.95;;;;;;;5.03;100.00;101363.69;6072856;28;20549;-72
2023/04/20 05:06:01;;;;;;;15.07;5.30;;;;;;;5.01;100.00;101355.00;6072142;28;20091;-71
2023/04/20 05:08:56;;;;;;;12.53;5.67;;;;;;;5.04;100.00;101362.72;6072675;28;20029;-70
2023/04/20 05:11:52;;;;;;;13.98;5.13;;;;;;;5.12;100.00;101357.81;6072988;28;20051;-71
2023/04/20 05:14:48;;;;;;;15.23;4.70;;;;;;;5.14;100.00;101364.69;6072236;28;20478;-71
2023/04/20 05:17:43;;;;;;;12.40;5.73;;;;;;;5.23;100.00;101360.63;6079136;28;20032;-72
2023/04/20 05:20:38;;;;;;;11.87;4.60;;;;;;;5.32;100.00;101366.19;6071852;28;20033;-70
2023/04/20 05:23:34;;;;;;;13.60;5.73;;;;;;;5.26;100.00;101365.69;6072613;28;20282;-71
2023/04/20 05:26:29;;;;;;;12.93;4.43;;;;;;;5.30;100.00;101372.44;6073072;28;20030;-72
2023/04/20 05:29:24;;;;;;;12.47;5.17;;;;;;;5.21;100.00;101363.38;6072879;28;20049;-72
2023/04/20 05:32:20;;;;;;;9.87;4.77;;;;;;;5.22;100.00;101380.81;6076162;28;20299;-72
2023/04/20 05:35:15;;;;;;;12.90;5.57;;;;;;;5.18;100.00;101370.59;6072161;28;20057;-69
2023/04/20 05:38:10;;;;;;;13.57;4.97;;;;;;;5.20;100.00;101369.56;6073234;28;20390;-73
2023/04/20 05:41:05;;;;;;;14.97;5.30;;;;;;;5.26;100.00;101381.47;6073273;28;20037;-72
2023/04/20 05:44:01;;;;;;;12.73;5.13;;;;;;;5.25;100.00;101369.25;6071955;28;20045;-73
2023/04/20 05:46:56;;;;;;;11.27;5.10;;;;;;;5.36;100.00;101377.31;6072559;28;20393;-70
2023/04/20 05:49:52;;;;;;;11.50;4.73;;;;;;;5.48;100.00;101388.88;6082039;28;20037;-70
2023/04/20 05:52:47;;;;;;;11.35;4.93;;;;;;;5.47;100.00;101374.00;6073203;28;20036;-73
2023/04/20 05:55:43;;;;;;;12.93;4.82;;;;;;;5.60;100.00;101391.53;6072384;28;20065;-71
2023/04/20 05:58:38;;;;;;;17.50;6.07;;;;;;;5.64;100.00;101395.69;6073678;28;20025;-71
2023/04/20 06:01:34;;;;;;;10.55;4.78;;;;;;;5.64;100.00;101398.31;6082808;28;20029;-71
2023/04/20 06:04:29;;;;;;;12.38;5.28;;;;;;;5.61;100.00;101402.91;6089017;28;20077;-71
2023/04/20 06:07:24;;;;;;;13.97;5.53;;;;;;;5.65;100.00;101407.06;6072924;28;20037;-71
2023/04/20 06:10:20;;;;;;;11.83;5.77;;;;;;;5.65;100.00;101405.28;6072592;28;20036;-72
2023/04/20 06:13:15;;;;;;;13.87;5.60;;;;;;;5.55;100.00;101388.38;6071754;28;20045;-71
2023/04/20 06:16:10;;;;;;;13.30;5.27;;;;;;;5.48;100.00;101387.09;6070873;28;20152;-71
2023/04/20 06:19:06;;;;;;;13.03;5.73;;;;;;;5.61;100.00;101395.88;6073464;28;20029;-71
2023/04/20 06:22:05;;;;;;;14.67;6.03;;;;;;;5.57;100.00;101397.00;6070543;28;20099;-70
2023/04/20 06:25:01;;;;;;;17.40;5.93;;;;;;;5.67;100.00;101406.03;6069645;28;20089;-72
2023/04/20 06:27:57;;;;;;;15.40;5.63;;;;;;;5.63;100.00;101401.03;6070338;28;20502;-72
2023/04/20 06:30:52;;;;;;;13.37;5.43;;;;;;;5.55;100.00;101387.53;6083268;28;20038;-70
2023/04/20 06:33:47;;;;;;;13.13;5.90;;;;;;;5.52;100.00;101388.56;6075904;28;20040;-71
2023/04/20 06:36:42;;;;;;;15.63;6.37;;;;;;;5.71;100.00;101404.88;6076518;28;20037;-71
2023/04/20 06:39:38;;;;;;;13.10;6.77;;;;;;;5.64;100.00;101400.09;6076548;28;20022;-73
2023/04/20 06:42:33;;;;;;;16.73;6.90;;;;;;;5.60;100.00;101396.00;6075970;28;20081;-72
2023/04/20 06:45:28;;;;;;;13.87;6.00;;;;;;;5.95;100.00;101400.69;6075641;28;20032;-73
2023/04/20 06:48:24;;;;;;;12.07;5.80;;;;;;;6.18;100.00;101395.72;6076410;28;20029;-73
2023/04/20 06:51:19;;;;;;;16.02;6.18;;;;;;;6.35;100.00;101405.97;6081275;28;20030;-73
2023/04/20 06:54:14;;;;;;;15.27;5.23;;;;;;;6.34;100.00;101406.91;6075608;28;20044;-71
2023/04/20 06:57:10;;;;;;;12.00;5.13;;;;;;;6.45;100.00;101397.34;6075191;28;20117;-72
2023/04/20 07:00:07;;;;;;;13.93;5.57;;;;;;;6.48;99.88;101391.03;6075946;28;20426;-72
2023/04/20 07:03:03;;;;;;;12.20;5.80;;;;;;;6.58;99.17;101400.00;6075665;28;20267;-71
2023/04/20 07:05:58;;;;;;;11.80;5.30;;;;;;;6.62;98.41;101393.59;6074754;28;20057;-72
2023/04/20 07:08:53;;;;;;;11.43;5.00;;;;;;;6.77;98.62;101392.53;6065417;28;20105;-72
2023/04/20 07:11:49;;;;;;;12.37;5.27;;;;;;;6.61;97.13;101394.53;6075299;28;20033;-73
2023/04/20 07:14:44;;;;;;;11.45;5.00;;;;;;;6.76;96.53;101396.13;6075017;28;20061;-72
2023/04/20 07:17:40;;;;;;;13.27;5.77;;;;;;;7.03;95.76;101403.94;6075113;28;20041;-72
2023/04/20 07:20:35;;;;;;;11.85;5.20;;;;;;;7.02;94.88;101411.00;6076842;28;20074;-72
2023/04/20 07:23:32;;;;;;;12.13;4.93;;;;;;;6.81;95.58;101412.47;6074227;28;20041;-72
2023/04/20 07:26:27;;;;;;;10.30;5.22;;;;;;;6.93;95.94;101411.63;6075380;28;20497;-73
2023/04/20 07:29:23;;;;;;;10.17;5.50;;;;;;;6.88;94.75;101415.50;6075530;28;20033;-73
2023/04/20 07:32:18;;;;;;;11.52;5.30;;;;;;;6.94;94.89;101408.03;6074939;28;20042;-73
2023/04/20 07:35:13;;;;;;;10.30;4.90;;;;;;;6.94;94.54;101410.69;6074364;28;20048;-71
2023/04/20 07:38:09;;;;;;;10.27;5.07;;;;;;;7.06;93.08;101404.56;6074978;28;20498;-72
2023/04/20 07:41:08;;;;;;;11.18;5.07;;;;;;;6.85;93.00;101406.03;6075291;28;20036;-71
2023/04/20 07:44:03;;;;;;;10.13;4.15;;;;;;;7.28;93.41;101419.75;6073818;28;20116;-71
2023/04/20 07:46:58;;;;;;;14.00;5.50;;;;;;;7.51;91.67;101404.91;6074073;28;20036;-72
2023/04/20 07:49:54;;;;;;;13.00;6.03;;;;;;;7.68;90.65;101401.91;6077350;28;20032;-71
2023/04/20 07:52:49;;;;;;;10.43;4.38;;;;;;;8.28;85.97;101418.59;6082632;28;20033;-73
2023/04/20 07:55:45;;;;;;;10.17;4.37;;;;;;;8.36;82.39;101410.06;6074162;28;20033;-73
2023/04/20 07:58:40;;;;;;;8.83;4.80;;;;;;;8.20;81.02;101420.91;6075100;28;20044;-72
2023/04/20 08:01:35;;;;;;;12.67;5.10;;;;;;;8.13;81.72;101405.59;6073207;28;20514;-73
2023/04/20 08:04:31;;;;;;;11.73;4.55;;;;;;;8.09;80.50;101402.38;6075451;28;20040;-73
2023/04/20 08:07:27;;;;;;;10.67;4.67;;;;;;;8.56;81.86;101422.63;6077190;28;20153;-73
2023/04/20 08:10:22;;;;;;;9.00;4.32;;;;;;;8.57;80.41;101407.59;6076815;28;20033;-72
2023/04/20 08:13:17;;;;;;;9.90;4.00;;;;;;;8.81;77.88;101408.38;6074218;28;20048;-72
2023/04/20 08:16:12;;;;;;;6.40;3.40;;;;;;;8.89;76.34;101411.28;6073699;28;20486;-71
2023/04/20 08:19:11;;;;;;;10.97;4.67;;;;;;;9.05;76.19;101427.66;6075881;28;20036;-72
2023/04/20 08:22:06;;;;;;;10.32;4.43;;;;;;;8.64;76.56;101424.72;6074925;28;20100;-73
2023/04/20 08:25:01;;;;;;;8.03;4.00;;;;;;;8.60;75.90;101434.66;6087334;28;20044;-72
2023/04/20 08:27:57;;;;;;;8.37;3.97;;;;;;;8.91;75.07;101428.72;6088734;28;20029;-74
2023/04/20 08:30:52;;;;;;;10.00;5.30;;;;;;;9.32;72.30;101417.56;6074030;28;20425;-71
2023/04/20 08:33:47;;;;;;;8.00;3.80;;;;;;;9.47;73.00;101421.66;6073497;28;20033;-72
2023/04/20 08:36:43;;;;;;;7.60;3.90;;;;;;;9.08;70.69;101430.06;6073930;28;20348;-70
2023/04/20 08:39:38;;;;;;;6.47;3.60;;;;;;;9.06;70.98;101439.06;6073460;28;20079;-71
2023/04/20 08:42:33;;;;;;;7.27;3.60;;;;;;;8.60;69.92;101428.53;6074055;28;20398;-71
2023/04/20 08:45:29;;;;;;;7.33;3.80;;;;;;;8.59;69.32;101430.31;6073112;28;20044;-72
2023/04/20 08:48:26;;;;;;;5.50;3.08;;;;;;;8.75;70.62;101422.09;6073429;28;20034;-71
2023/04/20 08:51:21;;;;;;;6.25;3.15;;;;;;;8.85;69.83;101431.00;6082887;28;20563;-73
2023/04/20 08:54:17;;;;;;;7.38;3.05;;;;;;;8.53;69.34;101427.31;6072620;28;20041;-72
2023/04/20 08:57:12;;;;;;;6.33;3.00;;;;;;;8.52;68.10;101429.13;6073232;28;20037;-73
2023/04/20 09:00:11;;;;;;;6.57;2.90;;;;;;;8.62;67.51;101416.03;6073676;28;20112;-71
2023/04/20 09:03:06;;;;;;;8.73;3.58;;;;;;;8.93;66.87;101425.97;6072875;28;20029;-72
2023/04/20 09:06:03;;;;;;;6.50;3.47;;;;;;;9.08;66.38;101440.66;6072610;28;20040;-71
2023/04/20 09:08:58;;;;;;;6.47;3.40;;;;;;;8.83;66.85;101433.75;6072403;28;20116;-71
2023/04/20 09:12:05;;;;;;;9.47;3.90;;;;;;;8.95;67.77;101424.88;6072682;28;20033;-72
2023/04/20 09:15:01;;;;;;;8.57;4.05;;;;;;;8.85;66.24;101431.00;6060329;28;20117;-71
2023/04/20 09:17:56;;;;;;;9.70;4.07;;;;;;;9.03;67.51;101426.09;6072488;28;20478;-73
2023/04/20 09:20:51;;;;;;;11.40;4.80;;;;;;;9.33;68.02;101439.56;6079907;28;20486;-74
2023/04/20 09:23:56;;;;;;;8.93;4.30;;;;;;;9.21;68.49;101430.81;6074363;28;20033;-72
2023/04/20 09:26:52;;;;;;;8.32;4.30;;;;;;;9.05;67.81;101432.13;6072716;28;20033;-73
2023/04/20 09:29:58;;;;;;;11.48;5.10;;;;;;;8.73;68.54;101429.28;6073102;28;20537;-73
2023/04/20 09:33:01;;;;;;;10.15;4.60;;;;;;;8.89;69.13;101443.00;6071891;28;20495;-74
2023/04/20 09:36:03;;;;;;;8.57;4.32;;;;;;;9.12;67.85;101442.09;6071812;28;20034;-74
2023/04/20 09:39:02;;;;;;;10.73;4.10;;;;;;;9.20;66.29;101436.22;6072643;28;20141;-72
2023/04/20 09:41:59;;;;;;;8.57;4.28;;;;;;;9.03;67.25;101440.16;6072985;28;20494;-73
2023/04/20 09:44:56;;;;;;;6.25;3.58;;;;;;;9.15;65.83;101426.00;6054340;28;20107;-73
2023/04/20 09:47:51;;;;;;;6.15;3.28;;;;;;;9.32;65.55;101440.56;6072256;28;20120;-71
2023/04/20 09:50:47;;;;;;;6.63;3.40;;;;;;;9.35;65.21;101437.66;6074243;28;20037;-73
2023/04/20 09:53:45;;;;;;;7.40;3.45;;;;;;;9.33;65.55;101442.22;6072128;28;20036;-72
2023/04/20 09:56:40;;;;;;;8.75;4.07;;;;;;;9.38;65.60;101432.97;6072647;28;20075;-72
2023/04/20 09:59:36;;;;;;;6.53;3.43;;;;;;;9.94;64.16;101430.25;6072379;28;20037;-73
2023/04/20 10:02:31;;;;;;;7.03;4.00;;;;;;;9.94;63.34;101435.56;6087597;28;20033;-70
2023/04/20 10:05:35;;;;;;;9.05;4.32;;;;;;;9.82;63.11;101442.69;6070849;28;20044;-73
2023/04/20 10:08:42;;;;;;;7.68;4.03;;;;;;;9.83;62.39;101443.53;6063372;28;20044;-71
2023/04/20 10:11:45;;;;;;;8.32;3.58;;;;;;;9.43;62.88;101438.72;6076769;28;20529;-73
2023/04/20 10:14:40;;;;;;;8.73;5.18;;;;;;;9.35;63.24;101438.50;6075724;28;20033;-70
2023/04/20 10:17:36;;;;;;;7.10;4.37;;;;;;;9.23;63.30;101431.53;6077400;28;20180;-71
2023/04/20 10:20:31;;;;;;;8.37;4.60;;;;;;;9.26;64.36;101435.75;6076795;28;20268;-72
2023/04/20 10:23:26;;;;;;;8.45;4.30;;;;;;;9.06;64.86;101433.78;6075020;28;20448;-72
2023/04/20 10:26:22;;;;;;;7.93;3.50;;;;;;;9.88;63.28;101433.41;6076464;28;20041;-72
2023/04/20 10:29:24;;;;;;;6.85;3.80;;;;;;;10.27;61.15;101432.00;6076767;28;20025;-71
2023/04/20 10:32:24;;;;;;;8.10;3.58;;;;;;;10.70;60.94;101420.34;6077019;28;20072;-73
2023/04/20 10:35:19;;;;;;;8.02;4.03;;;;;;;10.99;58.91;101411.69;6075786;28;20034;-69
2023/04/20 10:38:26;;;;;;;9.13;4.47;;;;;;;10.91;58.47;101420.31;6075363;28;20072;-72
2023/04/20 10:41:21;;;;;;;6.68;3.58;;;;;;;10.76;58.89;101414.47;6076021;28;20823;-71
2023/04/20 10:44:17;;;;;;;6.75;3.90;;;;;;;10.99;58.83;101409.03;6076885;28;20030;-70
2023/04/20 10:47:13;;;;;;;6.63;3.83;;;;;;;11.06;57.83;101419.00;6094078;28;20029;-70
2023/04/20 10:50:09;;;;;;;8.75;4.35;;;;;;;11.63;57.07;101430.84;6095474;28;20399;-74
2023/04/20 10:53:05;;;;;;;6.60;3.47;;;;;;;12.08;55.22;101412.63;6083571;28;20048;-73
2023/04/20 10:56:00;;;;;;;7.88;3.95;;;;;;;12.47;55.04;101406.38;6075619;28;20037;-71
2023/04/20 10:59:05;;;;;;;7.28;3.95;;;;;;;12.21;53.94;101407.88;6076454;28;20041;-73
2023/04/20 11:02:05;;;;;;;6.10;4.03;;;;;;;12.21;54.06;101397.25;6076575;28;20021;-74
2023/04/20 11:05:10;;;;;;;8.43;4.07;;;;;;;12.50;54.83;101414.88;6074852;28;20032;-71
2023/04/20 11:08:05;;;;;;;8.43;4.32;;;;;;;12.89;53.04;101412.16;6075979;28;20041;-71
2023/04/20 11:11:00;;;;;;;7.33;4.03;;;;;;;12.39;53.20;101393.75;6075681;28;20112;-72
2023/04/20 11:14:06;;;;;;;8.20;3.77;;;;;;;12.69;53.02;101400.72;6090888;28;20036;-70
2023/04/20 11:17:01;;;;;;;7.63;3.70;;;;;;;12.42;54.53;101392.63;6075591;28;20128;-74
2023/04/20 11:20:15;;;;;;;6.90;3.67;;;;;;;12.62;52.42;101399.59;6074580;28;20033;-71
2023/04/20 11:23:10;;;;;;;6.40;3.67;;;;;;;12.17;53.66;101379.91;6076971;28;20264;-72
2023/04/20 11:26:05;;;;;;;7.43;5.13;;;;;;;12.16;54.19;101380.88;6076112;28;20029;-73
2023/04/20 11:29:01;;;;;;;6.60;4.03;;;;;;;12.22;53.52;101380.31;6057849;28;20025;-73
2023/04/20 11:31:57;;;;;;;6.97;3.87;;;;;;;12.37;52.58;101389.53;6074589;28;20034;-74
2023/04/20 11:35:07;;;;;;;5.75;3.08;;;;;;;12.87;52.19;101375.06;6089380;28;20355;-73
2023/04/20 11:38:02;;;;;;;7.30;4.30;;;;;;;12.58;51.97;101345.03;6074943;28;20030;-74
2023/04/20 11:41:03;;;;;;;5.97;3.53;;;;;;;11.96;52.74;101369.38;6075143;28;20064;-72
2023/04/20 11:43:58;;;;;;;5.57;3.25;;;;;;;12.06;52.34;101374.72;6074119;28;20256;-72
2023/04/20 11:46:57;;;;;;;5.28;3.25;;;;;;;11.87;53.39;101371.09;6073912;28;20047;-72
2023/04/20 11:49:52;;;;;;;6.20;3.72;;;;;;;12.12;53.51;101379.50;6074862;28;20025;-74
2023/04/20 11:52:48;;;;;;;9.63;4.17;;;;;;;11.52;54.00;101354.78;6074679;28;20549;-74
2023/04/20 11:55:43;;;;;;;7.30;3.57;;;;;;;11.70;55.68;101357.63;6081670;28;20037;-73
2023/04/20 11:58:38;;;;;;;9.03;4.43;;;;;;;11.70;55.24;101355.81;6074146;28;20040;-73
2023/04/20 12:01:35;;;;;;;7.30;3.57;;;;;;;11.49;56.10;101360.34;6074448;28;20270;-72
2023/04/20 12:04:31;;;;;;;6.40;3.30;;;;;;;11.35;55.78;101353.59;6072500;28;20038;-74
2023/04/20 12:07:27;;;;;;;6.45;3.20;;;;;;;11.73;55.65;101347.56;6074274;28;20033;-72
2023/04/20 12:10:22;;;;;;;7.25;3.40;;;;;;;11.69;54.65;101350.59;6074574;28;20072;-72
2023/04/20 12:13:17;;;;;;;5.47;3.20;;;;;;;11.73;54.97;101350.22;6072900;28;20155;-72
2023/04/20 12:16:13;;;;;;;6.17;3.47;;;;;;;11.86;54.35;101364.06;6074248;28;20033;-70
2023/04/20 12:19:08;;;;;;;9.40;3.40;;;;;;;11.88;54.38;101364.78;6073665;28;20338;-74
2023/04/20 12:22:03;;;;;;;6.73;3.63;;;;;;;11.88;55.50;101354.13;6073452;28;20482;-74
2023/04/20 12:24:59;;;;;;;7.37;3.67;;;;;;;11.43;56.08;101336.97;6079063;28;20496;-74
2023/04/20 12:27:54;;;;;;;8.27;4.00;;;;;;;11.56;55.69;101358.81;6073602;28;20034;-75
2023/04/20 12:30:50;;;;;;;6.73;3.73;;;;;;;11.12;56.15;101341.50;6073536;28;20033;-73
2023/04/20 12:33:45;;;;;;;8.25;3.55;;;;;;;11.42;55.81;101353.88;6073273;28;20030;-73
2023/04/20 12:36:40;;;;;;;8.63;3.33;;;;;;;11.38;55.87;101344.53;6073506;28;20048;-74
2023/04/20 12:39:35;;;;;;;6.77;3.40;;;;;;;11.05;55.40;101360.75;6072988;28;20021;-72
2023/04/20 12:42:31;;;;;;;5.83;3.33;;;;;;;10.74;55.96;101347.47;6073406;28;20045;-73
2023/04/20 12:45:26;;;;;;;7.93;4.17;;;;;;;10.89;56.08;101340.00;6076596;28;20099;-72
2023/04/20 12:48:21;;;;;;;10.17;3.67;;;;;;;10.88;57.03;101342.78;6073802;28;20065;-73
2023/04/20 12:51:17;;;;;;;9.17;4.73;;;;;;;10.90;57.29;101340.84;6073648;28;20132;-73
2023/04/20 12:54:12;;;;;;;7.93;3.50;;;;;;;10.74;57.62;101346.63;6079855;28;20043;-73
2023/04/20 12:57:07;;;;;;;6.37;4.10;;;;;;;10.81;57.93;101339.84;6073709;28;20037;-74
2023/04/20 13:00:05;;;;;;;6.97;3.45;;;;;;;10.75;58.09;101343.84;6073769;28;20018;-72
2023/04/20 13:03:00;;;;;;;10.25;4.70;;;;;;;10.76;58.44;101337.56;6075102;28;20537;-73
2023/04/20 13:05:55;;;;;;;6.13;3.35;;;;;;;10.85;58.29;101337.72;6073237;28;20045;-73
2023/04/20 13:08:51;;;;;;;6.90;3.50;;;;;;;10.81;58.17;101336.34;6075174;28;20029;-74
2023/04/20 13:11:46;;;;;;;5.93;2.97;;;;;;;10.87;58.50;101341.13;6091249;28;20268;-73
2023/04/20 13:14:41;;;;;;;8.07;3.93;;;;;;;10.81;59.18;101331.88;6084609;28;20387;-75
2023/04/20 13:17:36;;;;;;;7.40;4.00;;;;;;;10.70;62.00;101340.75;6073567;28;20059;-75
2023/04/20 13:20:32;;;;;;;8.57;4.87;;;;;;;10.42;65.68;101319.34;6072513;28;20045;-75
2023/04/20 13:23:27;;;;;;;12.13;5.07;;;;;;;10.08;68.10;101338.03;6074057;28;20394;-72
2023/04/20 13:26:22;;;;;;;9.07;4.77;;;;;;;10.02;69.13;101353.63;6073898;28;20040;-75
2023/04/20 13:29:18;;;;;;;7.95;4.72;;;;;;;9.98;70.00;101337.13;6073753;28;20037;-73
2023/04/20 13:32:13;;;;;;;8.37;4.63;;;;;;;10.07;68.36;101343.50;6073207;28;20044;-71
2023/04/20 13:35:11;;;;;;;9.47;3.90;;;;;;;10.09;65.61;101353.00;6071780;28;20486;-73